Etusivu
METAR-TAF:

METAR-TAF

Lentoasemat :

La Tontoutan kansainvälinen lentoasema

Nouméa / La Tontouta, Uusi-Kaledonia

Leveyspiiri: 22-01S, Pituuspiiri: 166-13E, korkeus merenpinnasta: 16 m

Tämänhetkinen sää

Tämä raportti tehtiin 12 minuuttia sitten, kello 19.30 UTC
Tuuli 1 kn etelästä
Lämpötila 15°C
Kosteus 94%
Ilmanpaine 1016 hPa
Näkyvyys 10 km tai enemmän
Muutamia pilviä 6200 ft:n korkeudessa

METAR: NWWW 221930Z AUTO 18001KT 9999 FEW062 15/14 Q1016 NOSIG

Aika: 06:42 (19:42 UTC)

Sääennuste

Tämä raportti tehtiin 2 tuntia ja 42 minuuttia sitten, kello 17.00 UTC
Ennuste voimassa 22. päivästä klo 18 UTC - 23. päivään klo 18 UTC
Tuuli 2 kn eri suunnista
Näkyvyys 10 km tai enemmän
Muutamia pilviä 4500 ft:n korkeudessa
Tulossa
22. päivästä klo 22 UTC - 22. päivään klo 24 UTC
Tuuli 10 kn etelästä

TAF: NWWW 221700Z 2218/2318 VRB02KT 9999 FEW045 BECMG 2222/2224 19010KT

Säähavainnot ja -ennusteet yli 4000 lentoasemalta (METAR- ja TAF-raportit).

Käytössä olevat sääasemat on merkitty karttaan keltaisilla ja punaisilla pisteillä.

Aseta hiiri pisteen päälle nähdäksesi sääaseman nimen.

Klikkaa sitten nähdäksesi säähavainnot ja -ennusteet.

Kartan vaihtaminen: klikkaa mustalla rastilla varustettuja vihreitä pisteitä, niin voit zoomata sisään; viivalla varustettua vihreää pistettä, niin voit zoomata ulos tai vihreitä nuolia, niin pääset viereisille kartoille.


METAR-TAF: